Terminal Aerodrome Forecast
Issued by NWS Bismarck, ND

Home | Current Version | Previous Version | Text Only | Print | Product List | Glossary Off
Versions: 1 2 3 4 5 6 7 8 9 10 11 12 13 14 15 16 17 18 19 20 21

000
FTUS43 KBIS 160500
TAFBIS
TAF
KBIS 160530Z 1606/1706 34011KT P6SM OVC020
     FM161200 36005KT P6SM SCT020
      TEMPO 1612/1615 BKN020
     FM170000 07005KT P6SM SKC=

USA.gov is the U.S. government's official web portal to all federal, state and local government web resources and services.